sensor_id;sensor_type;location;lat;lon;timestamp;P1;durP1;ratioP1;P2;durP2;ratioP2
38851;SDS011;24605;50.092;9.182;2024-03-02T00:01:27;44.67;;;20.90;;
38851;SDS011;24605;50.092;9.182;2024-03-02T00:03:54;42.85;;;21.38;;
38851;SDS011;24605;50.092;9.182;2024-03-02T00:06:20;43.20;;;21.80;;
38851;SDS011;24605;50.092;9.182;2024-03-02T00:08:48;43.13;;;21.52;;
38851;SDS011;24605;50.092;9.182;2024-03-02T00:11:15;41.65;;;22.55;;
38851;SDS011;24605;50.092;9.182;2024-03-02T00:13:43;50.15;;;23.25;;
38851;SDS011;24605;50.092;9.182;2024-03-02T00:16:11;45.35;;;22.77;;
38851;SDS011;24605;50.092;9.182;2024-03-02T00:18:37;51.60;;;23.45;;
38851;SDS011;24605;50.092;9.182;2024-03-02T00:21:04;46.53;;;22.33;;
38851;SDS011;24605;50.092;9.182;2024-03-02T00:23:34;49.13;;;23.60;;
38851;SDS011;24605;50.092;9.182;2024-03-02T00:26:02;46.42;;;22.48;;
38851;SDS011;24605;50.092;9.182;2024-03-02T00:28:30;49.85;;;25.02;;
38851;SDS011;24605;50.092;9.182;2024-03-02T00:30:59;52.72;;;24.88;;
38851;SDS011;24605;50.092;9.182;2024-03-02T00:33:30;50.92;;;24.42;;
38851;SDS011;24605;50.092;9.182;2024-03-02T00:35:58;50.22;;;24.73;;
38851;SDS011;24605;50.092;9.182;2024-03-02T00:38:25;49.65;;;23.77;;
38851;SDS011;24605;50.092;9.182;2024-03-02T00:40:52;51.53;;;22.15;;
38851;SDS011;24605;50.092;9.182;2024-03-02T00:43:29;51.63;;;24.13;;
38851;SDS011;24605;50.092;9.182;2024-03-02T00:46:21;49.58;;;23.92;;
38851;SDS011;24605;50.092;9.182;2024-03-02T00:48:52;49.70;;;23.60;;
38851;SDS011;24605;50.092;9.182;2024-03-02T00:51:21;48.45;;;22.63;;
38851;SDS011;24605;50.092;9.182;2024-03-02T00:53:49;54.83;;;23.77;;
38851;SDS011;24605;50.092;9.182;2024-03-02T00:56:15;52.60;;;24.75;;
38851;SDS011;24605;50.092;9.182;2024-03-02T00:58:44;53.42;;;24.20;;
38851;SDS011;24605;50.092;9.182;2024-03-02T01:01:10;50.25;;;23.58;;
38851;SDS011;24605;50.092;9.182;2024-03-02T01:03:37;54.20;;;24.05;;
38851;SDS011;24605;50.092;9.182;2024-03-02T01:06:04;48.35;;;22.98;;
38851;SDS011;24605;50.092;9.182;2024-03-02T01:08:32;55.25;;;24.70;;
38851;SDS011;24605;50.092;9.182;2024-03-02T01:10:59;49.72;;;23.38;;
38851;SDS011;24605;50.092;9.182;2024-03-02T01:13:25;53.47;;;24.50;;
38851;SDS011;24605;50.092;9.182;2024-03-02T01:15:53;55.03;;;23.83;;
38851;SDS011;24605;50.092;9.182;2024-03-02T01:18:20;50.63;;;22.75;;
38851;SDS011;24605;50.092;9.182;2024-03-02T01:20:47;55.97;;;24.38;;
38851;SDS011;24605;50.092;9.182;2024-03-02T01:23:16;52.40;;;24.63;;
38851;SDS011;24605;50.092;9.182;2024-03-02T01:25:43;50.22;;;22.33;;
38851;SDS011;24605;50.092;9.182;2024-03-02T01:28:09;57.97;;;24.25;;
38851;SDS011;24605;50.092;9.182;2024-03-02T01:30:36;57.08;;;25.05;;
38851;SDS011;24605;50.092;9.182;2024-03-02T01:33:04;52.53;;;23.38;;
38851;SDS011;24605;50.092;9.182;2024-03-02T01:35:31;54.13;;;24.33;;
38851;SDS011;24605;50.092;9.182;2024-03-02T01:37:58;53.10;;;23.55;;
38851;SDS011;24605;50.092;9.182;2024-03-02T01:40:24;54.08;;;24.17;;
38851;SDS011;24605;50.092;9.182;2024-03-02T01:42:51;52.05;;;21.92;;
38851;SDS011;24605;50.092;9.182;2024-03-02T01:45:19;54.15;;;24.98;;
38851;SDS011;24605;50.092;9.182;2024-03-02T01:47:46;55.42;;;23.08;;
38851;SDS011;24605;50.092;9.182;2024-03-02T01:50:14;56.75;;;24.10;;
38851;SDS011;24605;50.092;9.182;2024-03-02T01:52:42;53.55;;;23.52;;
38851;SDS011;24605;50.092;9.182;2024-03-02T01:55:09;52.80;;;23.27;;
38851;SDS011;24605;50.092;9.182;2024-03-02T01:57:36;54.30;;;23.98;;
38851;SDS011;24605;50.092;9.182;2024-03-02T02:00:03;50.53;;;21.63;;
38851;SDS011;24605;50.092;9.182;2024-03-02T02:02:30;49.38;;;22.73;;
38851;SDS011;24605;50.092;9.182;2024-03-02T02:04:57;46.97;;;21.77;;
38851;SDS011;24605;50.092;9.182;2024-03-02T02:07:24;48.00;;;21.60;;
38851;SDS011;24605;50.092;9.182;2024-03-02T02:09:51;46.28;;;21.08;;
38851;SDS011;24605;50.092;9.182;2024-03-02T02:12:17;54.28;;;22.98;;
38851;SDS011;24605;50.092;9.182;2024-03-02T02:14:47;52.10;;;21.77;;
38851;SDS011;24605;50.092;9.182;2024-03-02T02:17:14;47.80;;;20.80;;
38851;SDS011;24605;50.092;9.182;2024-03-02T02:19:40;47.47;;;19.85;;
38851;SDS011;24605;50.092;9.182;2024-03-02T02:22:08;44.53;;;19.58;;
38851;SDS011;24605;50.092;9.182;2024-03-02T02:24:34;47.58;;;21.08;;
38851;SDS011;24605;50.092;9.182;2024-03-02T02:27:01;52.30;;;22.02;;
38851;SDS011;24605;50.092;9.182;2024-03-02T02:29:27;53.53;;;21.30;;
38851;SDS011;24605;50.092;9.182;2024-03-02T02:31:54;46.63;;;20.40;;
38851;SDS011;24605;50.092;9.182;2024-03-02T02:34:20;46.15;;;21.35;;
38851;SDS011;24605;50.092;9.182;2024-03-02T02:36:46;49.17;;;21.52;;
38851;SDS011;24605;50.092;9.182;2024-03-02T02:39:15;51.97;;;21.67;;
38851;SDS011;24605;50.092;9.182;2024-03-02T02:41:44;46.42;;;21.48;;
38851;SDS011;24605;50.092;9.182;2024-03-02T02:44:11;54.97;;;22.48;;
38851;SDS011;24605;50.092;9.182;2024-03-02T02:46:37;48.17;;;21.73;;
38851;SDS011;24605;50.092;9.182;2024-03-02T02:49:04;50.60;;;22.10;;
38851;SDS011;24605;50.092;9.182;2024-03-02T02:51:30;47.15;;;21.33;;
38851;SDS011;24605;50.092;9.182;2024-03-02T02:53:57;53.22;;;23.30;;
38851;SDS011;24605;50.092;9.182;2024-03-02T02:56:25;52.30;;;23.30;;
38851;SDS011;24605;50.092;9.182;2024-03-02T02:58:51;56.50;;;22.20;;
38851;SDS011;24605;50.092;9.182;2024-03-02T03:01:18;54.20;;;24.15;;
38851;SDS011;24605;50.092;9.182;2024-03-02T03:03:44;52.00;;;23.10;;
38851;SDS011;24605;50.092;9.182;2024-03-02T03:06:11;53.42;;;21.52;;
38851;SDS011;24605;50.092;9.182;2024-03-02T03:08:38;55.67;;;24.30;;
38851;SDS011;24605;50.092;9.182;2024-03-02T03:11:04;60.78;;;24.48;;
38851;SDS011;24605;50.092;9.182;2024-03-02T03:13:33;59.40;;;24.65;;
38851;SDS011;24605;50.092;9.182;2024-03-02T03:16:00;54.88;;;22.63;;
38851;SDS011;24605;50.092;9.182;2024-03-02T03:18:27;54.80;;;23.15;;
38851;SDS011;24605;50.092;9.182;2024-03-02T03:20:53;59.35;;;22.80;;
38851;SDS011;24605;50.092;9.182;2024-03-02T03:23:20;60.08;;;24.45;;
38851;SDS011;24605;50.092;9.182;2024-03-02T03:25:46;54.28;;;22.30;;
38851;SDS011;24605;50.092;9.182;2024-03-02T03:28:12;56.05;;;22.90;;
38851;SDS011;24605;50.092;9.182;2024-03-02T03:30:40;53.85;;;20.65;;
38851;SDS011;24605;50.092;9.182;2024-03-02T03:33:07;45.78;;;19.95;;
38851;SDS011;24605;50.092;9.182;2024-03-02T03:35:33;50.65;;;20.55;;
38851;SDS011;24605;50.092;9.182;2024-03-02T03:38:00;42.25;;;19.17;;
38851;SDS011;24605;50.092;9.182;2024-03-02T03:40:27;49.40;;;20.30;;
38851;SDS011;24605;50.092;9.182;2024-03-02T03:42:53;52.28;;;21.65;;
38851;SDS011;24605;50.092;9.182;2024-03-02T03:45:21;52.63;;;20.45;;
38851;SDS011;24605;50.092;9.182;2024-03-02T03:47:51;49.83;;;19.45;;
38851;SDS011;24605;50.092;9.182;2024-03-02T03:50:18;45.17;;;18.65;;
38851;SDS011;24605;50.092;9.182;2024-03-02T03:52:44;43.53;;;18.45;;
38851;SDS011;24605;50.092;9.182;2024-03-02T03:55:11;47.40;;;18.88;;
38851;SDS011;24605;50.092;9.182;2024-03-02T03:57:38;44.97;;;18.25;;
38851;SDS011;24605;50.092;9.182;2024-03-02T04:00:05;43.55;;;17.98;;
38851;SDS011;24605;50.092;9.182;2024-03-02T04:02:35;45.47;;;20.23;;
38851;SDS011;24605;50.092;9.182;2024-03-02T04:05:03;46.35;;;19.67;;
38851;SDS011;24605;50.092;9.182;2024-03-02T04:07:33;42.28;;;18.85;;
38851;SDS011;24605;50.092;9.182;2024-03-02T04:10:05;52.15;;;23.33;;
38851;SDS011;24605;50.092;9.182;2024-03-02T04:12:34;43.53;;;19.38;;
38851;SDS011;24605;50.092;9.182;2024-03-02T04:15:00;45.42;;;19.60;;
38851;SDS011;24605;50.092;9.182;2024-03-02T04:17:29;45.70;;;19.60;;
38851;SDS011;24605;50.092;9.182;2024-03-02T04:19:57;43.72;;;19.23;;
38851;SDS011;24605;50.092;9.182;2024-03-02T04:22:24;41.10;;;18.13;;
38851;SDS011;24605;50.092;9.182;2024-03-02T04:24:51;45.17;;;19.42;;
38851;SDS011;24605;50.092;9.182;2024-03-02T04:27:18;38.08;;;17.20;;
38851;SDS011;24605;50.092;9.182;2024-03-02T04:29:44;43.03;;;17.88;;
38851;SDS011;24605;50.092;9.182;2024-03-02T04:32:10;40.50;;;17.73;;
38851;SDS011;24605;50.092;9.182;2024-03-02T04:34:37;36.10;;;15.95;;
38851;SDS011;24605;50.092;9.182;2024-03-02T04:37:03;40.85;;;17.52;;
38851;SDS011;24605;50.092;9.182;2024-03-02T04:39:31;42.05;;;17.92;;
38851;SDS011;24605;50.092;9.182;2024-03-02T04:41:58;41.55;;;16.95;;
38851;SDS011;24605;50.092;9.182;2024-03-02T04:44:24;36.55;;;16.45;;
38851;SDS011;24605;50.092;9.182;2024-03-02T04:46:51;40.08;;;17.80;;
38851;SDS011;24605;50.092;9.182;2024-03-02T04:49:17;39.50;;;16.98;;
38851;SDS011;24605;50.092;9.182;2024-03-02T04:51:44;41.25;;;18.15;;
38851;SDS011;24605;50.092;9.182;2024-03-02T04:54:10;45.10;;;18.27;;
38851;SDS011;24605;50.092;9.182;2024-03-02T04:56:40;41.28;;;18.15;;
38851;SDS011;24605;50.092;9.182;2024-03-02T04:59:09;40.38;;;18.05;;
38851;SDS011;24605;50.092;9.182;2024-03-02T05:01:36;39.63;;;17.40;;
38851;SDS011;24605;50.092;9.182;2024-03-02T05:04:02;39.92;;;18.85;;
38851;SDS011;24605;50.092;9.182;2024-03-02T05:06:29;39.10;;;17.83;;
38851;SDS011;24605;50.092;9.182;2024-03-02T05:08:56;35.55;;;17.23;;
38851;SDS011;24605;50.092;9.182;2024-03-02T05:11:22;42.28;;;16.90;;
38851;SDS011;24605;50.092;9.182;2024-03-02T05:14:15;41.05;;;17.35;;
38851;SDS011;24605;50.092;9.182;2024-03-02T05:16:41;40.92;;;18.45;;
38851;SDS011;24605;50.092;9.182;2024-03-02T05:19:07;41.63;;;17.67;;
38851;SDS011;24605;50.092;9.182;2024-03-02T05:21:34;40.47;;;18.05;;
38851;SDS011;24605;50.092;9.182;2024-03-02T05:24:01;43.00;;;19.08;;
38851;SDS011;24605;50.092;9.182;2024-03-02T05:26:28;38.90;;;17.45;;
38851;SDS011;24605;50.092;9.182;2024-03-02T05:28:54;43.70;;;17.50;;
38851;SDS011;24605;50.092;9.182;2024-03-02T05:31:22;43.65;;;20.65;;
38851;SDS011;24605;50.092;9.182;2024-03-02T05:33:49;38.90;;;17.85;;
38851;SDS011;24605;50.092;9.182;2024-03-02T05:36:15;40.88;;;18.25;;
38851;SDS011;24605;50.092;9.182;2024-03-02T05:38:41;40.38;;;18.85;;
38851;SDS011;24605;50.092;9.182;2024-03-02T05:41:08;42.08;;;19.58;;
38851;SDS011;24605;50.092;9.182;2024-03-02T05:43:34;42.28;;;20.63;;
38851;SDS011;24605;50.092;9.182;2024-03-02T05:46:01;45.50;;;20.08;;
38851;SDS011;24605;50.092;9.182;2024-03-02T05:48:29;47.67;;;21.55;;
38851;SDS011;24605;50.092;9.182;2024-03-02T05:50:55;45.33;;;20.95;;
38851;SDS011;24605;50.092;9.182;2024-03-02T05:53:22;45.85;;;20.00;;
38851;SDS011;24605;50.092;9.182;2024-03-02T05:55:49;47.92;;;22.13;;
38851;SDS011;24605;50.092;9.182;2024-03-02T05:58:18;48.88;;;21.67;;
38851;SDS011;24605;50.092;9.182;2024-03-02T06:00:56;46.75;;;21.70;;
38851;SDS011;24605;50.092;9.182;2024-03-02T06:03:22;51.13;;;22.92;;
38851;SDS011;24605;50.092;9.182;2024-03-02T06:05:50;49.95;;;22.50;;
38851;SDS011;24605;50.092;9.182;2024-03-02T06:08:17;52.65;;;23.70;;
38851;SDS011;24605;50.092;9.182;2024-03-02T06:10:43;55.80;;;23.15;;
38851;SDS011;24605;50.092;9.182;2024-03-02T06:13:11;50.60;;;22.67;;
38851;SDS011;24605;50.092;9.182;2024-03-02T06:15:37;50.10;;;23.13;;
38851;SDS011;24605;50.092;9.182;2024-03-02T06:18:04;57.60;;;23.67;;
38851;SDS011;24605;50.092;9.182;2024-03-02T06:20:31;48.50;;;22.88;;
38851;SDS011;24605;50.092;9.182;2024-03-02T06:22:59;50.83;;;22.52;;
38851;SDS011;24605;50.092;9.182;2024-03-02T06:25:26;49.60;;;22.63;;
38851;SDS011;24605;50.092;9.182;2024-03-02T06:27:53;49.22;;;22.10;;
38851;SDS011;24605;50.092;9.182;2024-03-02T06:30:19;52.55;;;22.80;;
38851;SDS011;24605;50.092;9.182;2024-03-02T06:32:46;48.53;;;21.77;;
38851;SDS011;24605;50.092;9.182;2024-03-02T06:35:12;48.22;;;22.08;;
38851;SDS011;24605;50.092;9.182;2024-03-02T06:37:39;45.95;;;21.60;;
38851;SDS011;24605;50.092;9.182;2024-03-02T06:40:07;50.28;;;22.15;;
38851;SDS011;24605;50.092;9.182;2024-03-02T06:42:35;50.38;;;23.10;;
38851;SDS011;24605;50.092;9.182;2024-03-02T06:45:02;49.42;;;22.33;;
38851;SDS011;24605;50.092;9.182;2024-03-02T06:47:29;50.15;;;23.45;;
38851;SDS011;24605;50.092;9.182;2024-03-02T06:49:55;54.20;;;22.80;;
38851;SDS011;24605;50.092;9.182;2024-03-02T06:52:23;53.47;;;23.20;;
38851;SDS011;24605;50.092;9.182;2024-03-02T06:54:49;49.40;;;22.90;;
38851;SDS011;24605;50.092;9.182;2024-03-02T06:57:17;51.58;;;21.85;;
38851;SDS011;24605;50.092;9.182;2024-03-02T06:59:45;47.33;;;21.77;;
38851;SDS011;24605;50.092;9.182;2024-03-02T07:02:12;45.80;;;21.73;;
38851;SDS011;24605;50.092;9.182;2024-03-02T07:04:38;53.75;;;22.35;;
38851;SDS011;24605;50.092;9.182;2024-03-02T07:07:05;49.83;;;22.10;;
38851;SDS011;24605;50.092;9.182;2024-03-02T07:09:31;48.45;;;22.90;;
38851;SDS011;24605;50.092;9.182;2024-03-02T07:11:57;51.63;;;22.90;;
38851;SDS011;24605;50.092;9.182;2024-03-02T07:14:25;52.97;;;22.60;;
38851;SDS011;24605;50.092;9.182;2024-03-02T07:17:12;44.33;;;20.85;;
38851;SDS011;24605;50.092;9.182;2024-03-02T07:19:37;46.72;;;22.27;;
38851;SDS011;24605;50.092;9.182;2024-03-02T07:22:05;47.10;;;23.10;;
38851;SDS011;24605;50.092;9.182;2024-03-02T07:24:32;48.13;;;22.65;;
38851;SDS011;24605;50.092;9.182;2024-03-02T07:26:58;49.70;;;22.85;;
38851;SDS011;24605;50.092;9.182;2024-03-02T07:29:27;47.78;;;22.52;;
38851;SDS011;24605;50.092;9.182;2024-03-02T07:31:54;47.30;;;22.88;;
38851;SDS011;24605;50.092;9.182;2024-03-02T07:34:20;45.47;;;22.70;;
38851;SDS011;24605;50.092;9.182;2024-03-02T07:36:47;46.25;;;22.23;;
38851;SDS011;24605;50.092;9.182;2024-03-02T07:39:13;42.13;;;21.90;;
38851;SDS011;24605;50.092;9.182;2024-03-02T07:41:40;43.65;;;21.20;;
38851;SDS011;24605;50.092;9.182;2024-03-02T07:44:06;43.40;;;21.27;;
38851;SDS011;24605;50.092;9.182;2024-03-02T07:46:34;45.88;;;22.45;;
38851;SDS011;24605;50.092;9.182;2024-03-02T07:49:00;47.00;;;21.70;;
38851;SDS011;24605;50.092;9.182;2024-03-02T07:51:27;44.28;;;21.77;;
38851;SDS011;24605;50.092;9.182;2024-03-02T07:53:54;39.72;;;20.58;;
38851;SDS011;24605;50.092;9.182;2024-03-02T07:56:20;42.28;;;21.08;;
38851;SDS011;24605;50.092;9.182;2024-03-02T07:58:47;39.03;;;20.58;;
38851;SDS011;24605;50.092;9.182;2024-03-02T08:01:14;37.58;;;20.25;;
38851;SDS011;24605;50.092;9.182;2024-03-02T08:03:42;41.00;;;19.95;;
38851;SDS011;24605;50.092;9.182;2024-03-02T08:06:13;38.00;;;19.25;;
38851;SDS011;24605;50.092;9.182;2024-03-02T08:08:39;37.33;;;18.95;;
38851;SDS011;24605;50.092;9.182;2024-03-02T08:11:06;36.05;;;18.33;;
38851;SDS011;24605;50.092;9.182;2024-03-02T08:13:32;39.25;;;20.35;;
38851;SDS011;24605;50.092;9.182;2024-03-02T08:15:59;34.60;;;19.13;;
38851;SDS011;24605;50.092;9.182;2024-03-02T08:18:25;35.25;;;17.65;;
38851;SDS011;24605;50.092;9.182;2024-03-02T08:20:53;35.60;;;18.48;;
38851;SDS011;24605;50.092;9.182;2024-03-02T08:23:20;35.55;;;18.08;;
38851;SDS011;24605;50.092;9.182;2024-03-02T08:25:46;37.58;;;19.13;;
38851;SDS011;24605;50.092;9.182;2024-03-02T08:28:13;33.95;;;18.88;;
38851;SDS011;24605;50.092;9.182;2024-03-02T08:30:39;34.15;;;17.88;;
38851;SDS011;24605;50.092;9.182;2024-03-02T08:33:06;31.00;;;17.92;;
38851;SDS011;24605;50.092;9.182;2024-03-02T08:35:32;32.97;;;18.42;;
38851;SDS011;24605;50.092;9.182;2024-03-02T08:38:02;29.27;;;16.38;;
38851;SDS011;24605;50.092;9.182;2024-03-02T08:40:29;29.33;;;16.70;;
38851;SDS011;24605;50.092;9.182;2024-03-02T08:42:56;28.33;;;15.35;;
38851;SDS011;24605;50.092;9.182;2024-03-02T08:45:22;27.88;;;15.07;;
38851;SDS011;24605;50.092;9.182;2024-03-02T08:47:49;27.75;;;15.07;;
38851;SDS011;24605;50.092;9.182;2024-03-02T08:50:16;28.70;;;14.70;;
38851;SDS011;24605;50.092;9.182;2024-03-02T08:52:42;27.25;;;16.15;;
38851;SDS011;24605;50.092;9.182;2024-03-02T08:55:10;25.65;;;14.57;;
38851;SDS011;24605;50.092;9.182;2024-03-02T08:57:37;27.70;;;15.10;;
38851;SDS011;24605;50.092;9.182;2024-03-02T09:00:04;25.45;;;14.57;;
38851;SDS011;24605;50.092;9.182;2024-03-02T09:02:32;26.52;;;14.93;;
38851;SDS011;24605;50.092;9.182;2024-03-02T09:04:59;28.98;;;14.77;;
38851;SDS011;24605;50.092;9.182;2024-03-02T09:07:25;24.15;;;14.48;;
38851;SDS011;24605;50.092;9.182;2024-03-02T09:09:52;24.98;;;13.77;;
38851;SDS011;24605;50.092;9.182;2024-03-02T09:12:20;22.85;;;13.50;;
38851;SDS011;24605;50.092;9.182;2024-03-02T09:14:46;21.80;;;12.88;;
38851;SDS011;24605;50.092;9.182;2024-03-02T09:17:13;20.10;;;12.35;;
38851;SDS011;24605;50.092;9.182;2024-03-02T09:19:39;19.88;;;11.30;;
38851;SDS011;24605;50.092;9.182;2024-03-02T09:22:06;23.35;;;12.57;;
38851;SDS011;24605;50.092;9.182;2024-03-02T09:24:32;20.85;;;11.95;;
38851;SDS011;24605;50.092;9.182;2024-03-02T09:26:59;20.23;;;11.07;;
38851;SDS011;24605;50.092;9.182;2024-03-02T09:29:27;17.10;;;10.23;;
38851;SDS011;24605;50.092;9.182;2024-03-02T09:31:54;15.65;;;9.73;;
38851;SDS011;24605;50.092;9.182;2024-03-02T09:34:20;15.45;;;9.52;;
38851;SDS011;24605;50.092;9.182;2024-03-02T09:36:47;16.38;;;9.50;;
38851;SDS011;24605;50.092;9.182;2024-03-02T09:39:14;14.70;;;9.25;;
38851;SDS011;24605;50.092;9.182;2024-03-02T09:41:40;12.75;;;8.48;;
38851;SDS011;24605;50.092;9.182;2024-03-02T09:44:07;17.15;;;9.95;;
38851;SDS011;24605;50.092;9.182;2024-03-02T09:46:35;17.60;;;10.05;;
38851;SDS011;24605;50.092;9.182;2024-03-02T09:49:01;16.77;;;10.13;;
38851;SDS011;24605;50.092;9.182;2024-03-02T09:51:28;14.45;;;8.63;;
38851;SDS011;24605;50.092;9.182;2024-03-02T09:53:54;12.52;;;8.00;;
38851;SDS011;24605;50.092;9.182;2024-03-02T09:56:21;17.38;;;9.40;;
38851;SDS011;24605;50.092;9.182;2024-03-02T09:58:48;14.63;;;8.15;;
38851;SDS011;24605;50.092;9.182;2024-03-02T10:01:14;13.07;;;7.78;;
38851;SDS011;24605;50.092;9.182;2024-03-02T10:03:42;18.55;;;8.07;;
38851;SDS011;24605;50.092;9.182;2024-03-02T10:06:21;12.50;;;7.73;;
38851;SDS011;24605;50.092;9.182;2024-03-02T10:08:49;13.63;;;7.70;;
38851;SDS011;24605;50.092;9.182;2024-03-02T10:11:25;12.85;;;7.57;;
38851;SDS011;24605;50.092;9.182;2024-03-02T10:14:03;14.15;;;7.72;;
38851;SDS011;24605;50.092;9.182;2024-03-02T10:16:33;11.10;;;7.15;;
38851;SDS011;24605;50.092;9.182;2024-03-02T10:19:05;11.48;;;6.50;;
38851;SDS011;24605;50.092;9.182;2024-03-02T10:21:41;12.75;;;7.32;;
38851;SDS011;24605;50.092;9.182;2024-03-02T10:24:08;12.15;;;7.15;;
38851;SDS011;24605;50.092;9.182;2024-03-02T10:26:34;11.35;;;6.85;;
38851;SDS011;24605;50.092;9.182;2024-03-02T10:29:01;11.25;;;6.57;;
38851;SDS011;24605;50.092;9.182;2024-03-02T10:31:27;10.70;;;6.40;;
38851;SDS011;24605;50.092;9.182;2024-03-02T10:33:54;10.15;;;5.57;;
38851;SDS011;24605;50.092;9.182;2024-03-02T10:36:22;8.48;;;5.25;;
38851;SDS011;24605;50.092;9.182;2024-03-02T10:38:50;8.88;;;5.30;;
38851;SDS011;24605;50.092;9.182;2024-03-02T10:41:20;11.45;;;6.47;;
38851;SDS011;24605;50.092;9.182;2024-03-02T10:43:49;9.52;;;5.70;;
38851;SDS011;24605;50.092;9.182;2024-03-02T10:46:20;8.27;;;5.00;;
38851;SDS011;24605;50.092;9.182;2024-03-02T10:48:48;9.40;;;4.78;;
38851;SDS011;24605;50.092;9.182;2024-03-02T10:51:15;8.15;;;4.97;;
38851;SDS011;24605;50.092;9.182;2024-03-02T10:53:43;8.77;;;4.53;;
38851;SDS011;24605;50.092;9.182;2024-03-02T10:56:09;7.05;;;3.72;;
38851;SDS011;24605;50.092;9.182;2024-03-02T10:58:42;7.90;;;3.92;;
38851;SDS011;24605;50.092;9.182;2024-03-02T11:01:09;7.40;;;3.35;;
38851;SDS011;24605;50.092;9.182;2024-03-02T11:03:37;6.03;;;3.05;;
38851;SDS011;24605;50.092;9.182;2024-03-02T11:06:05;6.18;;;3.33;;
38851;SDS011;24605;50.092;9.182;2024-03-02T11:08:34;5.68;;;3.03;;
38851;SDS011;24605;50.092;9.182;2024-03-02T11:11:06;6.78;;;3.65;;
38851;SDS011;24605;50.092;9.182;2024-03-02T11:13:35;6.40;;;3.40;;
38851;SDS011;24605;50.092;9.182;2024-03-02T11:16:05;5.80;;;3.15;;
38851;SDS011;24605;50.092;9.182;2024-03-02T11:18:39;7.07;;;3.45;;
38851;SDS011;24605;50.092;9.182;2024-03-02T11:21:07;8.15;;;3.83;;
38851;SDS011;24605;50.092;9.182;2024-03-02T11:23:34;6.28;;;3.45;;
38851;SDS011;24605;50.092;9.182;2024-03-02T11:28:44;7.72;;;3.10;;
38851;SDS011;24605;50.092;9.182;2024-03-02T11:31:11;5.28;;;3.08;;
38851;SDS011;24605;50.092;9.182;2024-03-02T11:33:38;5.72;;;3.50;;
38851;SDS011;24605;50.092;9.182;2024-03-02T11:36:05;5.65;;;3.08;;
38851;SDS011;24605;50.092;9.182;2024-03-02T11:38:33;5.88;;;3.03;;
38851;SDS011;24605;50.092;9.182;2024-03-02T11:41:00;7.05;;;3.28;;
38851;SDS011;24605;50.092;9.182;2024-03-02T11:43:29;6.97;;;3.42;;
38851;SDS011;24605;50.092;9.182;2024-03-02T11:45:57;5.75;;;3.10;;
38851;SDS011;24605;50.092;9.182;2024-03-02T11:48:24;6.85;;;3.42;;
38851;SDS011;24605;50.092;9.182;2024-03-02T11:50:52;6.00;;;3.03;;
38851;SDS011;24605;50.092;9.182;2024-03-02T11:53:19;4.82;;;2.65;;
38851;SDS011;24605;50.092;9.182;2024-03-02T11:55:47;4.43;;;2.10;;
38851;SDS011;24605;50.092;9.182;2024-03-02T11:58:15;5.50;;;2.40;;
38851;SDS011;24605;50.092;9.182;2024-03-02T12:00:44;4.00;;;1.90;;
38851;SDS011;24605;50.092;9.182;2024-03-02T12:03:12;4.53;;;2.13;;
38851;SDS011;24605;50.092;9.182;2024-03-02T12:05:39;3.90;;;1.90;;
38851;SDS011;24605;50.092;9.182;2024-03-02T12:08:06;3.42;;;1.52;;
38851;SDS011;24605;50.092;9.182;2024-03-02T12:10:33;3.20;;;1.60;;
38851;SDS011;24605;50.092;9.182;2024-03-02T12:13:01;3.45;;;1.63;;
38851;SDS011;24605;50.092;9.182;2024-03-02T12:15:29;3.40;;;1.77;;
38851;SDS011;24605;50.092;9.182;2024-03-02T12:17:59;4.65;;;2.20;;
38851;SDS011;24605;50.092;9.182;2024-03-02T12:20:26;4.45;;;1.85;;
38851;SDS011;24605;50.092;9.182;2024-03-02T12:22:55;3.45;;;1.75;;
38851;SDS011;24605;50.092;9.182;2024-03-02T12:25:24;5.93;;;1.75;;
38851;SDS011;24605;50.092;9.182;2024-03-02T12:27:51;3.38;;;1.48;;
38851;SDS011;24605;50.092;9.182;2024-03-02T12:30:19;4.03;;;1.67;;
38851;SDS011;24605;50.092;9.182;2024-03-02T12:32:49;3.88;;;1.80;;
38851;SDS011;24605;50.092;9.182;2024-03-02T12:35:17;4.53;;;2.28;;
38851;SDS011;24605;50.092;9.182;2024-03-02T12:37:44;5.07;;;2.17;;
38851;SDS011;24605;50.092;9.182;2024-03-02T12:40:11;5.55;;;2.55;;
38851;SDS011;24605;50.092;9.182;2024-03-02T12:42:38;4.72;;;2.30;;
38851;SDS011;24605;50.092;9.182;2024-03-02T12:45:05;4.85;;;2.30;;
38851;SDS011;24605;50.092;9.182;2024-03-02T12:47:32;4.82;;;2.47;;
38851;SDS011;24605;50.092;9.182;2024-03-02T12:49:59;5.47;;;2.25;;
38851;SDS011;24605;50.092;9.182;2024-03-02T12:52:27;4.85;;;2.22;;
38851;SDS011;24605;50.092;9.182;2024-03-02T12:54:54;5.00;;;2.67;;
38851;SDS011;24605;50.092;9.182;2024-03-02T12:57:24;4.45;;;2.10;;
38851;SDS011;24605;50.092;9.182;2024-03-02T12:59:52;3.75;;;2.08;;
38851;SDS011;24605;50.092;9.182;2024-03-02T13:02:22;6.70;;;2.35;;
38851;SDS011;24605;50.092;9.182;2024-03-02T13:04:52;4.38;;;2.20;;
38851;SDS011;24605;50.092;9.182;2024-03-02T13:07:19;5.75;;;2.65;;
38851;SDS011;24605;50.092;9.182;2024-03-02T13:09:48;5.28;;;2.20;;
38851;SDS011;24605;50.092;9.182;2024-03-02T13:12:15;5.07;;;1.85;;
38851;SDS011;24605;50.092;9.182;2024-03-02T13:14:42;2.58;;;1.20;;
38851;SDS011;24605;50.092;9.182;2024-03-02T13:17:08;3.42;;;1.30;;
38851;SDS011;24605;50.092;9.182;2024-03-02T13:19:35;3.75;;;1.88;;
38851;SDS011;24605;50.092;9.182;2024-03-02T13:22:02;3.47;;;1.55;;
38851;SDS011;24605;50.092;9.182;2024-03-02T13:24:28;2.95;;;1.50;;
38851;SDS011;24605;50.092;9.182;2024-03-02T13:26:56;4.25;;;1.40;;
38851;SDS011;24605;50.092;9.182;2024-03-02T13:29:23;3.30;;;1.80;;
38851;SDS011;24605;50.092;9.182;2024-03-02T13:31:50;4.28;;;1.45;;
38851;SDS011;24605;50.092;9.182;2024-03-02T13:34:16;2.58;;;1.33;;
38851;SDS011;24605;50.092;9.182;2024-03-02T13:36:42;3.15;;;1.17;;
38851;SDS011;24605;50.092;9.182;2024-03-02T13:39:09;3.08;;;1.17;;
38851;SDS011;24605;50.092;9.182;2024-03-02T13:41:35;2.90;;;0.80;;
38851;SDS011;24605;50.092;9.182;2024-03-02T13:44:04;2.15;;;1.00;;
38851;SDS011;24605;50.092;9.182;2024-03-02T13:46:30;1.40;;;0.65;;
38851;SDS011;24605;50.092;9.182;2024-03-02T13:48:57;2.00;;;1.00;;
38851;SDS011;24605;50.092;9.182;2024-03-02T13:51:24;3.10;;;1.40;;
38851;SDS011;24605;50.092;9.182;2024-03-02T13:53:52;3.17;;;1.48;;
38851;SDS011;24605;50.092;9.182;2024-03-02T13:56:18;4.05;;;1.63;;
38851;SDS011;24605;50.092;9.182;2024-03-02T13:58:45;3.03;;;1.50;;
38851;SDS011;24605;50.092;9.182;2024-03-02T14:01:13;2.05;;;1.00;;
38851;SDS011;24605;50.092;9.182;2024-03-02T14:03:39;2.95;;;1.00;;
38851;SDS011;24605;50.092;9.182;2024-03-02T14:06:06;2.70;;;1.15;;
38851;SDS011;24605;50.092;9.182;2024-03-02T14:08:32;2.88;;;1.40;;
38851;SDS011;24605;50.092;9.182;2024-03-02T14:11:01;2.60;;;1.23;;
38851;SDS011;24605;50.092;9.182;2024-03-02T14:13:27;2.72;;;1.38;;
38851;SDS011;24605;50.092;9.182;2024-03-02T14:15:53;4.57;;;1.38;;
38851;SDS011;24605;50.092;9.182;2024-03-02T14:18:21;2.40;;;1.20;;
38851;SDS011;24605;50.092;9.182;2024-03-02T14:20:48;2.22;;;1.10;;
38851;SDS011;24605;50.092;9.182;2024-03-02T14:23:17;2.85;;;1.38;;
38851;SDS011;24605;50.092;9.182;2024-03-02T14:25:44;3.65;;;1.38;;
38851;SDS011;24605;50.092;9.182;2024-03-02T14:28:11;2.55;;;1.30;;
38851;SDS011;24605;50.092;9.182;2024-03-02T14:30:38;3.30;;;1.40;;
38851;SDS011;24605;50.092;9.182;2024-03-02T14:33:04;2.20;;;1.20;;